createdAt,value
2018-01-03T00:02:08.322Z,76.17
2018-01-03T00:04:36.734Z,77.25
2018-01-03T00:07:05.445Z,77.74
2018-01-03T00:09:34.630Z,77.44
2018-01-03T00:12:03.809Z,76.25
2018-01-03T00:14:32.537Z,75.92
2018-01-03T00:17:00.949Z,75.86
2018-01-03T00:19:29.361Z,76.31
2018-01-03T00:21:58.582Z,76.88
2018-01-03T00:24:27.757Z,76.87
2018-01-03T00:26:56.174Z,77.98
2018-01-03T00:29:24.853Z,78.68
2018-01-03T00:31:53.273Z,78.63
2018-01-03T00:34:21.689Z,78.83
2018-01-03T00:36:50.934Z,78.35
2018-01-03T00:39:19.358Z,77.98
2018-01-03T00:41:47.790Z,78.14
2018-01-03T00:44:16.237Z,77.73
2018-01-03T00:46:45.422Z,77.97
2018-01-03T00:49:14.614Z,77.83
2018-01-03T00:51:43.439Z,77.87
2018-01-03T00:54:11.853Z,76.57
2018-01-03T00:56:40.266Z,76.15
2018-01-03T00:59:09.801Z,75.86
2018-01-03T01:01:38.237Z,74.67
2018-01-03T01:04:06.661Z,75.40
2018-01-03T01:06:35.125Z,74.61
2018-01-03T01:09:04.414Z,75.12
2018-01-03T01:11:33.598Z,75.07
2018-01-03T01:14:02.078Z,75.13
2018-01-03T01:16:30.493Z,75.93
2018-01-03T01:18:59.673Z,75.61
2018-01-03T01:21:29.093Z,75.63
2018-01-03T01:23:58.270Z,75.38
2018-01-03T01:26:27.457Z,75.58
2018-01-03T01:28:55.941Z,75.22
2018-01-03T01:31:25.865Z,74.82
2018-01-03T01:33:55.049Z,74.52
2018-01-03T01:36:23.775Z,74.33
2018-01-03T01:38:52.189Z,73.95
2018-01-03T01:41:20.601Z,73.97
2018-01-03T01:43:50.709Z,73.58
2018-01-03T01:46:19.123Z,73.66
2018-01-03T01:49:06.069Z,74.65
2018-01-03T01:51:34.494Z,74.25
2018-01-03T01:54:02.909Z,74.34
2018-01-03T01:56:31.586Z,74.17
2018-01-03T01:59:00.765Z,74.48
2018-01-03T02:01:29.942Z,76.64
2018-01-03T02:03:58.565Z,76.44
2018-01-03T02:06:27.757Z,75.55
2018-01-03T02:08:56.173Z,75.22
2018-01-03T02:11:24.781Z,74.16
2018-01-03T02:13:53.190Z,73.71
2018-01-03T02:16:22.370Z,73.03
2018-01-03T02:18:50.989Z,72.82
2018-01-03T02:21:19.402Z,72.53
2018-01-03T02:23:47.813Z,72.46
2018-01-03T02:26:16.545Z,72.16
2018-01-03T02:28:44.957Z,71.47
2018-01-03T02:31:13.414Z,71.13
2018-01-03T02:33:41.866Z,71.34
2018-01-03T02:36:11.062Z,70.99
2018-01-03T02:38:40.242Z,71.29
2018-01-03T02:41:09.773Z,70.23
2018-01-03T02:43:38.949Z,69.48
2018-01-03T02:46:08.126Z,68.08
2018-01-03T02:48:36.749Z,67.73
2018-01-03T02:51:05.926Z,67.48
2018-01-03T02:53:35.105Z,67.30
2018-01-03T02:56:03.567Z,66.79
2018-01-03T02:58:31.977Z,65.77
2018-01-03T03:01:01.149Z,65.50
2018-01-03T03:03:29.589Z,64.75
2018-01-03T03:05:57.997Z,64.31
2018-01-03T03:08:26.405Z,63.56
2018-01-03T03:10:55.029Z,63.54
2018-01-03T03:13:23.441Z,63.24
2018-01-03T03:15:51.849Z,62.90
2018-01-03T03:18:20.477Z,62.74
2018-01-03T03:20:48.886Z,62.97
2018-01-03T03:23:18.065Z,63.16
2018-01-03T03:25:46.693Z,63.47
2018-01-03T03:28:15.101Z,63.57
2018-01-03T03:30:45.269Z,63.61
2018-01-03T03:33:14.517Z,63.97
2018-01-03T03:35:42.929Z,64.02
2018-01-03T03:38:11.344Z,63.97
2018-01-03T03:40:39.794Z,63.66
2018-01-03T03:43:08.197Z,64.46
2018-01-03T03:45:37.372Z,66.88
2018-01-03T03:48:05.821Z,69.46
2018-01-03T03:50:34.233Z,70.28
2018-01-03T03:53:04.157Z,71.38
2018-01-03T03:55:33.397Z,71.64
2018-01-03T03:58:01.810Z,72.36
2018-01-03T04:00:30.221Z,73.73
2018-01-03T04:02:59.437Z,73.19
2018-01-03T04:05:27.855Z,73.33
2018-01-03T04:07:56.269Z,74.08
2018-01-03T04:10:25.662Z,75.07
2018-01-03T04:12:54.105Z,75.39
2018-01-03T04:15:22.526Z,75.45
2018-01-03T04:17:50.977Z,77.38
2018-01-03T04:20:19.394Z,79.34
2018-01-03T04:22:48.570Z,79.79
2018-01-03T04:25:17.129Z,80.26
2018-01-03T04:27:45.540Z,79.54
2018-01-03T04:30:13.957Z,79.55
2018-01-03T04:32:42.537Z,79.52
2018-01-03T04:35:10.973Z,78.68
2018-01-03T04:37:40.897Z,78.92
2018-01-03T04:40:09.350Z,78.07
2018-01-03T04:42:37.765Z,76.55
2018-01-03T04:45:06.953Z,75.99
2018-01-03T04:47:35.573Z,76.00
2018-01-03T04:50:04.013Z,76.79
2018-01-03T04:52:33.194Z,76.35
2018-01-03T04:55:01.837Z,76.15
2018-01-03T04:57:30.254Z,76.95
2018-01-03T04:59:58.669Z,75.91
2018-01-03T05:02:28.097Z,75.40
2018-01-03T05:04:56.514Z,76.63
2018-01-03T05:07:24.926Z,76.46
2018-01-03T05:09:53.542Z,76.55
2018-01-03T05:12:21.963Z,77.11
2018-01-03T05:14:50.385Z,76.75
2018-01-03T05:17:19.760Z,76.35
2018-01-03T05:19:48.177Z,76.51
2018-01-03T05:22:16.597Z,76.74
2018-01-03T05:24:45.457Z,76.76
2018-01-03T05:27:13.870Z,77.06
2018-01-03T05:29:42.282Z,76.69
2018-01-03T05:32:11.713Z,75.44
2018-01-03T05:34:40.153Z,74.31
2018-01-03T05:37:08.581Z,74.95
2018-01-03T05:39:37.265Z,74.80
2018-01-03T05:42:05.678Z,74.23
2018-01-03T05:44:34.089Z,73.46
2018-01-03T05:47:04.202Z,73.34
2018-01-03T05:49:32.615Z,72.68
2018-01-03T05:52:01.034Z,72.28
2018-01-03T05:54:29.593Z,71.38
2018-01-03T05:56:58.006Z,71.03
2018-01-03T05:59:26.418Z,70.92
2018-01-03T06:01:55.842Z,70.87
2018-01-03T06:04:24.265Z,70.99
2018-01-03T06:06:52.673Z,70.30
2018-01-03T06:09:21.121Z,70.55
2018-01-03T06:11:49.533Z,70.71
2018-01-03T06:14:18.719Z,69.83
2018-01-03T06:16:47.938Z,70.11
2018-01-03T06:19:17.118Z,70.22
2018-01-03T06:21:45.533Z,70.54
2018-01-03T06:24:14.014Z,70.43
2018-01-03T06:26:42.438Z,70.44
2018-01-03T06:29:10.855Z,70.36
2018-01-03T06:31:40.084Z,70.35
2018-01-03T06:34:08.580Z,71.41
2018-01-03T06:36:37.006Z,71.23
2018-01-03T06:39:05.721Z,71.35
2018-01-03T06:41:34.141Z,71.26
2018-01-03T06:44:02.553Z,70.62
2018-01-03T06:46:31.782Z,70.24
2018-01-03T06:49:00.198Z,68.66
2018-01-03T06:51:28.607Z,68.07
2018-01-03T06:53:57.977Z,67.59
2018-01-03T06:56:26.386Z,66.76
2018-01-03T06:58:54.801Z,65.20
2018-01-03T07:01:23.477Z,64.81
2018-01-03T07:03:52.678Z,64.66
2018-01-03T07:06:21.097Z,63.58
2018-01-03T07:08:49.959Z,62.72
2018-01-03T07:11:18.369Z,62.68
2018-01-03T07:13:46.786Z,62.49
2018-01-03T07:16:16.209Z,61.96
2018-01-03T07:18:44.625Z,62.69
2018-01-03T07:21:13.040Z,62.25
2018-01-03T07:23:41.489Z,63.36
2018-01-03T07:26:09.901Z,61.28
2018-01-03T07:28:39.085Z,60.67
2018-01-03T07:31:07.542Z,61.98
2018-01-03T07:33:35.958Z,60.30
2018-01-03T07:36:05.149Z,60.46
2018-01-03T07:38:33.765Z,59.30
2018-01-03T07:41:02.939Z,57.73
2018-01-03T07:43:32.131Z,58.54
2018-01-03T07:46:00.586Z,58.29
2018-01-03T07:48:29.001Z,58.86
2018-01-03T07:50:58.189Z,59.40
2018-01-03T07:53:27.625Z,59.58
2018-01-03T07:55:56.046Z,57.92
2018-01-03T07:58:24.465Z,59.58
2018-01-03T08:00:53.889Z,59.57
2018-01-03T08:03:22.301Z,59.09
2018-01-03T08:05:50.722Z,57.66
2018-01-03T08:08:20.254Z,56.55
2018-01-03T08:10:48.694Z,53.91
2018-01-03T08:13:17.125Z,55.09
2018-01-03T08:15:45.590Z,55.99
2018-01-03T08:18:14.774Z,55.12
2018-01-03T08:20:43.965Z,54.87
2018-01-03T08:23:13.397Z,53.69
2018-01-03T08:25:41.813Z,54.35
2018-01-03T08:28:10.225Z,52.30
2018-01-03T08:30:39.449Z,51.56
2018-01-03T08:33:07.865Z,50.17
2018-01-03T08:35:36.274Z,50.35
2018-01-03T08:38:05.717Z,49.78
2018-01-03T08:40:34.126Z,49.48
2018-01-03T08:43:02.546Z,50.67
2018-01-03T08:45:32.113Z,49.79
2018-01-03T08:48:00.530Z,50.62
2018-01-03T08:50:29.725Z,49.26
2018-01-03T08:52:58.197Z,49.67
2018-01-03T08:55:26.609Z,49.38
2018-01-03T08:57:55.030Z,49.51
2018-01-03T09:00:23.889Z,49.33
2018-01-03T09:02:52.302Z,49.33
2018-01-03T09:05:20.709Z,49.60
2018-01-03T09:07:49.169Z,48.94
2018-01-03T09:10:17.584Z,49.31
2018-01-03T09:12:46.761Z,49.42
2018-01-03T09:15:15.226Z,50.08
2018-01-03T09:17:43.638Z,49.87
2018-01-03T09:20:12.817Z,49.23
2018-01-03T09:22:41.446Z,50.25
2018-01-03T09:25:09.857Z,48.71
2018-01-03T09:27:38.270Z,48.29
2018-01-03T09:30:07.506Z,48.03
2018-01-03T09:32:35.996Z,48.71
2018-01-03T09:35:04.410Z,50.12
2018-01-03T09:37:32.886Z,47.99
2018-01-03T09:40:02.322Z,47.52
2018-01-03T09:42:31.505Z,47.61
2018-01-03T09:44:59.973Z,47.78
2018-01-03T09:47:28.390Z,45.92
2018-01-03T09:49:57.573Z,45.88
2018-01-03T09:52:27.783Z,45.71
2018-01-03T09:54:56.197Z,45.96
2018-01-03T09:57:24.622Z,45.44
2018-01-03T09:59:53.117Z,44.98
2018-01-03T10:02:21.553Z,45.02
2018-01-03T10:04:49.965Z,45.86
2018-01-03T10:07:18.450Z,45.31
2018-01-03T10:09:46.870Z,44.46
2018-01-03T10:12:16.066Z,45.26
2018-01-03T10:14:45.482Z,45.58
2018-01-03T10:17:13.894Z,43.98
2018-01-03T10:19:42.309Z,43.80
2018-01-03T10:22:10.930Z,43.98
2018-01-03T10:24:40.144Z,44.93
2018-01-03T10:27:08.562Z,44.50
2018-01-03T10:29:37.121Z,44.25
2018-01-03T10:32:05.543Z,43.18
2018-01-03T10:34:34.729Z,44.17
2018-01-03T10:37:03.221Z,43.42
2018-01-03T10:39:32.430Z,43.61
2018-01-03T10:42:01.618Z,44.57
2018-01-03T10:44:30.882Z,44.53
2018-01-03T10:46:59.297Z,43.49
2018-01-03T10:49:28.486Z,43.39
2018-01-03T10:51:56.958Z,42.50
2018-01-03T10:54:25.369Z,43.45
2018-01-03T10:56:53.789Z,44.19
2018-01-03T10:59:22.441Z,44.67
2018-01-03T11:01:50.851Z,44.63
2018-01-03T11:04:19.328Z,43.76
2018-01-03T11:06:48.514Z,44.21
2018-01-03T11:09:16.930Z,43.93
2018-01-03T11:11:45.341Z,43.78
2018-01-03T11:14:14.765Z,43.40
2018-01-03T11:16:43.190Z,42.54
2018-01-03T11:19:11.606Z,44.67
2018-01-03T11:21:41.230Z,43.54
2018-01-03T11:24:09.646Z,42.68
2018-01-03T11:26:38.069Z,43.76
2018-01-03T11:29:07.290Z,43.62
2018-01-03T11:31:35.703Z,43.40
2018-01-03T11:34:04.122Z,43.94
2018-01-03T11:36:33.554Z,44.19
2018-01-03T11:39:01.970Z,43.35
2018-01-03T11:41:30.386Z,43.61
2018-01-03T11:43:59.806Z,44.46
2018-01-03T11:46:28.986Z,43.77
2018-01-03T11:48:58.170Z,42.97
2018-01-03T11:51:26.894Z,42.92
2018-01-03T11:53:55.314Z,44.09
2018-01-03T11:56:23.729Z,43.47
2018-01-03T11:58:52.977Z,44.36
2018-01-03T12:01:21.397Z,43.20
2018-01-03T12:03:51.330Z,43.89
2018-01-03T12:06:20.856Z,42.97
2018-01-03T12:08:49.273Z,42.54
2018-01-03T12:11:17.698Z,42.80
2018-01-03T12:13:47.009Z,41.91
2018-01-03T12:16:15.693Z,42.57
2018-01-03T12:18:44.110Z,42.81
2018-01-03T12:21:12.757Z,41.24
2018-01-03T12:23:41.176Z,42.40
2018-01-03T12:26:09.640Z,42.54
2018-01-03T12:28:38.081Z,42.41
2018-01-03T12:31:07.262Z,41.72
2018-01-03T12:33:35.677Z,41.83
2018-01-03T12:36:04.206Z,40.99
2018-01-03T12:38:32.626Z,41.09
2018-01-03T12:41:01.812Z,39.78
2018-01-03T12:43:31.325Z,40.29
2018-01-03T12:46:00.506Z,40.89
2018-01-03T12:48:29.689Z,41.27
2018-01-03T12:50:58.522Z,41.90
2018-01-03T12:53:26.934Z,42.24
2018-01-03T12:55:55.357Z,41.97
2018-01-03T12:58:24.586Z,42.82
2018-01-03T13:00:53.002Z,41.94
2018-01-03T13:03:21.422Z,41.39
2018-01-03T13:05:50.851Z,42.19
2018-01-03T13:08:19.257Z,41.96
2018-01-03T13:10:47.669Z,41.78
2018-01-03T13:13:16.897Z,42.47
2018-01-03T13:15:45.317Z,42.68
2018-01-03T13:18:13.735Z,43.06
2018-01-03T13:20:42.954Z,42.16
2018-01-03T13:23:11.378Z,42.13
2018-01-03T13:25:39.795Z,41.94
2018-01-03T13:28:09.053Z,41.83
2018-01-03T13:30:37.486Z,41.40
2018-01-03T13:33:05.922Z,40.74
2018-01-03T13:35:35.634Z,40.96
2018-01-03T13:38:04.047Z,42.24
2018-01-03T13:40:33.238Z,42.80
2018-01-03T13:43:02.477Z,43.22
2018-01-03T13:45:30.906Z,43.12
2018-01-03T13:47:59.330Z,43.69
2018-01-03T13:50:28.002Z,44.27
2018-01-03T13:52:56.429Z,44.87
2018-01-03T13:55:24.846Z,45.04
2018-01-03T13:57:54.073Z,45.30
2018-01-03T14:00:22.500Z,45.14
2018-01-03T14:02:50.930Z,44.77
2018-01-03T14:05:19.616Z,45.21
2018-01-03T14:07:48.042Z,45.68
2018-01-03T14:10:16.467Z,45.93
2018-01-03T14:12:44.957Z,46.28
2018-01-03T14:15:13.374Z,46.90
2018-01-03T14:17:41.793Z,47.74
2018-01-03T14:20:11.208Z,48.24
2018-01-03T14:22:40.398Z,48.34
2018-01-03T14:25:09.578Z,48.51
2018-01-03T14:27:39.206Z,49.06
2018-01-03T14:30:08.398Z,49.44
2018-01-03T14:32:36.823Z,50.15
2018-01-03T14:35:05.681Z,50.66
2018-01-03T14:37:34.106Z,51.19
2018-01-03T14:40:02.525Z,50.99
2018-01-03T14:42:31.741Z,51.18
2018-01-03T14:45:00.154Z,50.99
2018-01-03T14:47:28.573Z,51.33
2018-01-03T14:49:57.798Z,51.53
2018-01-03T14:52:26.213Z,51.89
2018-01-03T14:54:54.635Z,52.45
2018-01-03T14:57:24.053Z,52.85
2018-01-03T14:59:52.474Z,53.59
2018-01-03T15:02:20.890Z,53.87
2018-01-03T15:04:50.122Z,54.09
2018-01-03T15:07:18.543Z,54.27
2018-01-03T15:09:46.966Z,54.50
2018-01-03T15:12:15.445Z,54.90
2018-01-03T15:14:43.869Z,55.27
2018-01-03T15:17:12.283Z,55.62
2018-01-03T15:19:40.762Z,55.78
2018-01-03T15:22:09.961Z,55.43
2018-01-03T15:24:38.387Z,55.29
2018-01-03T15:27:07.057Z,55.16
2018-01-03T15:29:35.478Z,54.50
2018-01-03T15:32:03.905Z,54.66
2018-01-03T15:34:33.128Z,54.89
2018-01-03T15:37:01.554Z,54.82
2018-01-03T15:39:29.991Z,55.21
2018-01-03T15:41:58.441Z,55.43
2018-01-03T15:44:26.870Z,55.02
2018-01-03T15:46:55.286Z,55.05
2018-01-03T15:49:24.524Z,55.45
2018-01-03T15:51:52.940Z,55.58
2018-01-03T15:54:21.353Z,55.79
2018-01-03T15:56:50.777Z,55.91
2018-01-03T15:59:19.197Z,55.26
2018-01-03T16:01:47.626Z,56.03
2018-01-03T16:04:16.326Z,56.27
2018-01-03T16:06:44.747Z,56.91
2018-01-03T16:09:13.170Z,57.30
2018-01-03T16:11:42.410Z,57.46
2018-01-03T16:14:10.825Z,57.32
2018-01-03T16:16:39.251Z,57.94
2018-01-03T16:19:07.812Z,57.69
2018-01-03T16:21:36.238Z,58.43
2018-01-03T16:24:04.658Z,59.69
2018-01-03T16:26:33.914Z,60.46
2018-01-03T16:29:02.326Z,60.89
2018-01-03T16:31:30.741Z,61.51
2018-01-03T16:33:59.358Z,61.44
2018-01-03T16:36:27.779Z,61.70
2018-01-03T16:38:56.965Z,62.49
2018-01-03T16:41:26.218Z,62.53
2018-01-03T16:43:54.651Z,61.94
2018-01-03T16:46:23.838Z,61.80
2018-01-03T16:48:52.562Z,61.55
2018-01-03T16:51:21.006Z,61.87
2018-01-03T16:53:50.206Z,62.56
2018-01-03T16:56:19.437Z,62.96
2018-01-03T16:58:47.861Z,62.43
2018-01-03T17:01:17.042Z,62.17
2018-01-03T17:03:45.757Z,62.29
2018-01-03T17:06:14.954Z,61.02
2018-01-03T17:08:43.370Z,60.24
2018-01-03T17:11:12.235Z,62.48
2018-01-03T17:13:40.650Z,62.59
2018-01-03T17:16:09.078Z,62.51
2018-01-03T17:18:37.693Z,63.39
2018-01-03T17:21:06.114Z,63.90
2018-01-03T17:23:34.541Z,63.82
2018-01-03T17:26:03.017Z,63.14
2018-01-03T17:28:31.434Z,63.10
2018-01-03T17:30:59.854Z,62.74
2018-01-03T17:33:30.218Z,62.75
2018-01-03T17:35:58.651Z,62.39
2018-01-03T17:38:27.838Z,63.67
2018-01-03T17:40:56.566Z,63.97
2018-01-03T17:43:25.011Z,65.63
2018-01-03T17:45:54.202Z,66.11
2018-01-03T17:48:22.687Z,66.56
2018-01-03T17:50:51.714Z,67.56
2018-01-03T17:53:20.134Z,67.93
2018-01-03T17:55:48.778Z,68.00
2018-01-03T17:58:17.202Z,67.84
2018-01-03T18:00:45.710Z,68.71
2018-01-03T18:03:15.143Z,69.39
2018-01-03T18:05:43.558Z,68.18
2018-01-03T18:08:11.974Z,69.45
2018-01-03T18:10:41.214Z,69.40
2018-01-03T18:13:09.634Z,68.69
2018-01-03T18:15:38.049Z,68.57
2018-01-03T18:18:07.472Z,69.28
2018-01-03T18:20:35.889Z,69.03
2018-01-03T18:23:04.367Z,69.04
2018-01-03T18:25:33.031Z,69.52
2018-01-03T18:28:01.450Z,68.36
2018-01-03T18:30:29.873Z,68.10
2018-01-03T18:32:58.564Z,68.71
2018-01-03T18:35:26.974Z,68.79
2018-01-03T18:37:55.397Z,69.62
2018-01-03T18:40:24.814Z,68.45
2018-01-03T18:42:53.238Z,69.48
2018-01-03T18:45:21.658Z,69.31
2018-01-03T18:47:51.087Z,70.12
2018-01-03T18:50:19.506Z,69.98
2018-01-03T18:52:47.933Z,70.15
2018-01-03T18:55:16.394Z,69.61
2018-01-03T18:57:46.273Z,68.67
2018-01-03T19:00:14.801Z,68.04
2018-01-03T19:02:44.018Z,67.35
2018-01-03T19:05:12.430Z,67.31
2018-01-03T19:07:40.858Z,66.44
2018-01-03T19:10:10.274Z,67.95
2018-01-03T19:12:38.710Z,69.44
2018-01-03T19:15:07.132Z,69.64
2018-01-03T19:17:35.617Z,70.33
2018-01-03T19:20:04.038Z,71.11
2018-01-03T19:22:32.457Z,70.37
2018-01-03T19:25:01.687Z,70.90
2018-01-03T19:27:30.114Z,70.16
2018-01-03T19:29:58.554Z,69.91
2018-01-03T19:32:27.175Z,71.52
2018-01-03T19:34:55.619Z,71.76
2018-01-03T19:37:24.098Z,71.27
2018-01-03T19:39:52.870Z,70.48
2018-01-03T19:42:21.301Z,70.56
2018-01-03T19:44:49.731Z,69.97
2018-01-03T19:47:18.411Z,69.05
2018-01-03T19:49:46.834Z,69.35
2018-01-03T19:52:15.249Z,69.06
2018-01-03T19:54:44.907Z,69.20
2018-01-03T19:57:13.591Z,69.50
2018-01-03T19:59:42.217Z,69.14
2018-01-03T20:02:11.785Z,68.51
2018-01-03T20:04:40.471Z,68.55
2018-01-03T20:07:09.971Z,68.41
2018-01-03T20:09:38.656Z,68.51
2018-01-03T20:12:07.340Z,68.21
2018-01-03T20:14:35.974Z,68.08
2018-01-03T20:17:05.791Z,69.03
2018-01-03T20:19:35.241Z,69.20
2018-01-03T20:22:03.902Z,69.28
2018-01-03T20:24:32.869Z,70.04
2018-01-03T20:27:02.330Z,69.08
2018-01-03T20:29:30.976Z,70.50
2018-01-03T20:31:59.940Z,71.72
2018-01-03T20:34:29.420Z,71.21
2018-01-03T20:36:57.986Z,72.11
2018-01-03T20:39:26.970Z,71.50
2018-01-03T20:41:55.679Z,71.82
2018-01-03T20:44:24.359Z,72.76
2018-01-03T20:46:53.206Z,74.20
2018-01-03T20:49:21.756Z,73.87
2018-01-03T20:51:50.515Z,73.66
2018-01-03T20:54:19.300Z,72.36
2018-01-03T20:56:47.986Z,71.78
2018-01-03T20:59:16.618Z,73.01
2018-01-03T21:01:46.279Z,73.67
2018-01-03T21:04:14.976Z,73.02
2018-01-03T21:06:43.650Z,72.50
2018-01-03T21:09:12.446Z,72.11
2018-01-03T21:11:41.132Z,72.06
2018-01-03T21:14:09.770Z,71.87
2018-01-03T21:16:39.132Z,72.74
2018-01-03T21:19:07.859Z,71.94
2018-01-03T21:21:36.590Z,73.24
2018-01-03T21:24:05.545Z,73.49
2018-01-03T21:26:34.278Z,73.12
2018-01-03T21:29:02.954Z,72.38
2018-01-03T21:31:31.737Z,72.05
2018-01-03T21:34:00.424Z,72.70
2018-01-03T21:36:29.062Z,73.62
2018-01-03T21:38:57.795Z,73.31
2018-01-03T21:41:26.444Z,72.82
2018-01-03T21:43:55.166Z,73.47
2018-01-03T21:46:23.852Z,73.81
2018-01-03T21:48:52.538Z,73.82
2018-01-03T21:51:21.083Z,73.73
2018-01-03T21:53:50.219Z,73.54
2018-01-03T21:56:18.852Z,73.84
2018-01-03T21:58:48.313Z,73.96
2018-01-03T22:01:16.959Z,73.63
2018-01-03T22:03:45.501Z,72.97
2018-01-03T22:06:14.262Z,72.99
2018-01-03T22:08:43.156Z,72.95
2018-01-03T22:11:11.807Z,72.72
2018-01-03T22:13:40.527Z,72.82
2018-01-03T22:16:10.492Z,72.93
2018-01-03T22:18:39.828Z,73.71
2018-01-03T22:21:08.529Z,73.84
2018-01-03T22:23:37.414Z,73.77
2018-01-03T22:26:06.107Z,73.62
2018-01-03T22:28:34.755Z,73.08
2018-01-03T22:31:03.577Z,72.92
2018-01-03T22:33:32.218Z,72.62
2018-01-03T22:36:00.949Z,72.42
2018-01-03T22:38:29.699Z,72.67
2018-01-03T22:40:58.429Z,72.36
2018-01-03T22:43:27.005Z,72.65
2018-01-03T22:45:55.979Z,72.10
2018-01-03T22:48:24.685Z,71.46
2018-01-03T22:50:53.342Z,71.63
2018-01-03T22:53:22.207Z,71.47
2018-01-03T22:55:51.664Z,71.74
2018-01-03T22:58:20.293Z,72.06
2018-01-03T23:00:50.032Z,71.86
2018-01-03T23:03:18.753Z,71.71
2018-01-03T23:05:47.374Z,72.39
2018-01-03T23:08:16.937Z,71.89
2018-01-03T23:10:45.523Z,72.09
2018-01-03T23:13:14.150Z,72.17
2018-01-03T23:15:43.817Z,73.10
2018-01-03T23:18:12.459Z,73.29
2018-01-03T23:20:41.189Z,72.92
2018-01-03T23:23:10.146Z,72.55
2018-01-03T23:25:38.868Z,72.56
2018-01-03T23:28:07.509Z,72.63
2018-01-03T23:30:36.599Z,74.29
2018-01-03T23:33:05.331Z,74.26
2018-01-03T23:35:33.959Z,73.60
2018-01-03T23:38:03.733Z,76.07
2018-01-03T23:40:32.366Z,75.30
2018-01-03T23:43:01.820Z,75.26
2018-01-03T23:45:30.603Z,74.19
2018-01-03T23:47:59.254Z,72.86
2018-01-03T23:50:27.975Z,73.79
2018-01-03T23:52:56.660Z,73.31
2018-01-03T23:55:25.347Z,72.78
2018-01-03T23:57:53.994Z,73.12
